sensor_id;sensor_type;location;lat;lon;timestamp;pressure;altitude;pressure_sealevel;temperature;humidity
21102;BME280;10709;49.006;12.100;2023-06-22T00:01:21;48934.09;;;-146.00;81.93
21102;BME280;10709;49.006;12.100;2023-06-22T00:03:52;48939.97;;;-146.00;82.32
21102;BME280;10709;49.006;12.100;2023-06-22T00:06:19;48983.06;;;-146.00;82.86
21102;BME280;10709;49.006;12.100;2023-06-22T00:08:45;48973.28;;;-146.00;82.82
21102;BME280;10709;49.006;12.100;2023-06-22T00:11:13;48938.03;;;-146.00;83.07
21102;BME280;10709;49.006;12.100;2023-06-22T00:13:42;48971.31;;;-146.00;83.17
21102;BME280;10709;49.006;12.100;2023-06-22T00:16:09;48971.31;;;-146.00;82.94
21102;BME280;10709;49.006;12.100;2023-06-22T00:18:38;48983.06;;;-146.00;82.98
21102;BME280;10709;49.006;12.100;2023-06-22T00:21:06;48971.31;;;-146.00;83.14
21102;BME280;10709;49.006;12.100;2023-06-22T00:23:33;48961.53;;;-146.00;82.71
21102;BME280;10709;49.006;12.100;2023-06-22T00:26:01;48953.69;;;-146.00;82.74
21102;BME280;10709;49.006;12.100;2023-06-22T00:28:27;48934.09;;;-146.00;83.25
21102;BME280;10709;49.006;12.100;2023-06-22T00:30:55;48941.94;;;-146.00;83.03
21102;BME280;10709;49.006;12.100;2023-06-22T00:33:21;48965.44;;;-146.00;83.28
21102;BME280;10709;49.006;12.100;2023-06-22T00:35:48;48949.78;;;-146.00;83.87
21102;BME280;10709;49.006;12.100;2023-06-22T00:38:16;48945.84;;;-146.00;83.56
21102;BME280;10709;49.006;12.100;2023-06-22T00:40:43;48957.59;;;-146.00;83.56
21102;BME280;10709;49.006;12.100;2023-06-22T00:43:09;48961.53;;;-146.00;84.32
21102;BME280;10709;49.006;12.100;2023-06-22T00:45:36;48953.69;;;-146.00;85.40
21102;BME280;10709;49.006;12.100;2023-06-22T00:48:03;48953.69;;;-146.00;85.24
21102;BME280;10709;49.006;12.100;2023-06-22T00:50:32;48945.84;;;-146.00;86.16
21102;BME280;10709;49.006;12.100;2023-06-22T00:53:05;49016.38;;;-146.00;86.38
21102;BME280;10709;49.006;12.100;2023-06-22T00:55:37;48981.13;;;-146.00;86.07
21102;BME280;10709;49.006;12.100;2023-06-22T00:58:06;48977.19;;;-146.00;85.51
21102;BME280;10709;49.006;12.100;2023-06-22T01:00:38;48932.13;;;-146.00;85.23
21102;BME280;10709;49.006;12.100;2023-06-22T01:03:08;48945.84;;;-146.00;85.17
21102;BME280;10709;49.006;12.100;2023-06-22T01:05:37;48990.91;;;-146.00;84.66
21102;BME280;10709;49.006;12.100;2023-06-22T01:08:16;48947.81;;;-146.00;85.31
21102;BME280;10709;49.006;12.100;2023-06-22T01:10:53;48961.53;;;-146.00;85.05
21102;BME280;10709;49.006;12.100;2023-06-22T01:13:30;48947.81;;;-146.00;85.13
21102;BME280;10709;49.006;12.100;2023-06-22T01:16:03;48961.53;;;-146.00;84.72
21102;BME280;10709;49.006;12.100;2023-06-22T01:18:34;48992.88;;;-146.00;85.02
21102;BME280;10709;49.006;12.100;2023-06-22T01:21:06;49016.38;;;-146.00;85.62
21102;BME280;10709;49.006;12.100;2023-06-22T01:24:15;48969.38;;;-146.00;86.03
21102;BME280;10709;49.006;12.100;2023-06-22T01:27:02;48979.16;;;-146.00;86.10
21102;BME280;10709;49.006;12.100;2023-06-22T01:29:33;48975.25;;;-146.00;85.38
21102;BME280;10709;49.006;12.100;2023-06-22T01:32:03;48988.94;;;-146.00;86.03
21102;BME280;10709;49.006;12.100;2023-06-22T01:34:34;48969.38;;;-146.00;86.44
21102;BME280;10709;49.006;12.100;2023-06-22T01:42:27;48994.84;;;-146.00;86.98
21102;BME280;10709;49.006;12.100;2023-06-22T01:44:54;48988.94;;;-146.00;87.03
21102;BME280;10709;49.006;12.100;2023-06-22T01:47:22;48977.19;;;-146.00;87.43
21102;BME280;10709;49.006;12.100;2023-06-22T01:49:52;48961.53;;;-146.00;87.19
21102;BME280;10709;49.006;12.100;2023-06-22T01:52:19;48965.44;;;-146.00;87.42
21102;BME280;10709;49.006;12.100;2023-06-22T01:54:47;48959.56;;;-146.00;87.66
21102;BME280;10709;49.006;12.100;2023-06-22T01:57:14;48961.53;;;-146.00;87.63
21102;BME280;10709;49.006;12.100;2023-06-22T01:59:48;49016.38;;;-146.00;88.01
21102;BME280;10709;49.006;12.100;2023-06-22T02:02:20;48977.19;;;-146.00;88.10
21102;BME280;10709;49.006;12.100;2023-06-22T02:04:59;48992.88;;;-146.00;88.54
21102;BME280;10709;49.006;12.100;2023-06-22T02:07:32;48985.03;;;-146.00;88.60
21102;BME280;10709;49.006;12.100;2023-06-22T02:10:00;49016.38;;;-146.00;88.49
21102;BME280;10709;49.006;12.100;2023-06-22T02:12:29;49028.13;;;-146.00;88.61
21102;BME280;10709;49.006;12.100;2023-06-22T02:14:58;48985.03;;;-146.00;88.34
21102;BME280;10709;49.006;12.100;2023-06-22T02:17:27;48996.78;;;-146.00;88.05
21102;BME280;10709;49.006;12.100;2023-06-22T02:19:54;48945.84;;;-146.00;88.25
21102;BME280;10709;49.006;12.100;2023-06-22T02:22:21;49028.13;;;-146.00;88.43
21102;BME280;10709;49.006;12.100;2023-06-22T02:24:47;48992.88;;;-146.00;87.76
21102;BME280;10709;49.006;12.100;2023-06-22T02:27:14;48988.94;;;-146.00;88.13
21102;BME280;10709;49.006;12.100;2023-06-22T02:29:40;49004.63;;;-146.00;87.80
21102;BME280;10709;49.006;12.100;2023-06-22T02:32:07;48949.78;;;-146.00;87.47
21102;BME280;10709;49.006;12.100;2023-06-22T02:34:33;48992.88;;;-146.00;87.43
21102;BME280;10709;49.006;12.100;2023-06-22T02:37:01;48959.56;;;-146.00;87.50
21102;BME280;10709;49.006;12.100;2023-06-22T02:39:29;48985.03;;;-146.00;87.28
21102;BME280;10709;49.006;12.100;2023-06-22T02:41:55;48987.00;;;-146.00;87.49
21102;BME280;10709;49.006;12.100;2023-06-22T02:44:22;48985.03;;;-146.00;87.38
21102;BME280;10709;49.006;12.100;2023-06-22T02:46:49;48977.19;;;-146.00;87.72
21102;BME280;10709;49.006;12.100;2023-06-22T02:49:16;49014.41;;;-146.00;87.75
21102;BME280;10709;49.006;12.100;2023-06-22T02:51:45;48961.53;;;-146.00;87.45
21102;BME280;10709;49.006;12.100;2023-06-22T02:54:12;48969.38;;;-146.00;87.19
21102;BME280;10709;49.006;12.100;2023-06-22T02:56:38;48985.03;;;-146.00;87.55
21102;BME280;10709;49.006;12.100;2023-06-22T02:59:07;48953.69;;;-146.00;87.80
21102;BME280;10709;49.006;12.100;2023-06-22T03:01:33;48969.38;;;-146.00;87.86
21102;BME280;10709;49.006;12.100;2023-06-22T03:04:07;48977.19;;;-146.00;87.91
21102;BME280;10709;49.006;12.100;2023-06-22T03:06:34;48973.28;;;-146.00;87.84
21102;BME280;10709;49.006;12.100;2023-06-22T03:09:04;48973.28;;;-146.00;87.74
21102;BME280;10709;49.006;12.100;2023-06-22T03:11:32;48977.19;;;-146.00;87.76
21102;BME280;10709;49.006;12.100;2023-06-22T03:14:01;49004.63;;;-146.00;88.00
21102;BME280;10709;49.006;12.100;2023-06-22T03:16:28;48985.03;;;-146.00;88.22
21102;BME280;10709;49.006;12.100;2023-06-22T03:18:56;48994.84;;;-146.00;88.35
21102;BME280;10709;49.006;12.100;2023-06-22T03:21:23;48965.44;;;-146.00;88.51
21102;BME280;10709;49.006;12.100;2023-06-22T03:23:50;49008.53;;;-146.00;88.76
21102;BME280;10709;49.006;12.100;2023-06-22T03:26:17;48943.91;;;-146.00;88.84
21102;BME280;10709;49.006;12.100;2023-06-22T03:28:44;49008.53;;;-146.00;89.28
21102;BME280;10709;49.006;12.100;2023-06-22T03:31:10;49008.53;;;-146.00;89.57
21102;BME280;10709;49.006;12.100;2023-06-22T03:33:37;48988.94;;;-146.00;89.39
21102;BME280;10709;49.006;12.100;2023-06-22T03:36:03;48983.06;;;-146.00;89.21
21102;BME280;10709;49.006;12.100;2023-06-22T03:38:30;48963.50;;;-146.00;89.41
21102;BME280;10709;49.006;12.100;2023-06-22T03:40:56;49016.38;;;-146.00;89.43
21102;BME280;10709;49.006;12.100;2023-06-22T03:43:23;49014.41;;;-146.00;89.20
21102;BME280;10709;49.006;12.100;2023-06-22T03:45:52;48988.94;;;-146.00;89.20
21102;BME280;10709;49.006;12.100;2023-06-22T03:48:18;48965.44;;;-146.00;90.09
21102;BME280;10709;49.006;12.100;2023-06-22T03:50:45;48992.88;;;-146.00;90.29
21102;BME280;10709;49.006;12.100;2023-06-22T03:53:11;48985.03;;;-146.00;90.24
21102;BME280;10709;49.006;12.100;2023-06-22T03:55:48;48977.19;;;-146.00;90.14
21102;BME280;10709;49.006;12.100;2023-06-22T03:58:16;48981.13;;;-146.00;89.68
21102;BME280;10709;49.006;12.100;2023-06-22T04:00:46;49000.72;;;-146.00;90.61
21102;BME280;10709;49.006;12.100;2023-06-22T04:03:13;48988.94;;;-146.00;91.25
21102;BME280;10709;49.006;12.100;2023-06-22T04:05:41;48985.03;;;-146.00;90.65
21102;BME280;10709;49.006;12.100;2023-06-22T04:08:08;49004.63;;;-146.00;90.49
21102;BME280;10709;49.006;12.100;2023-06-22T04:10:34;49028.13;;;-146.00;90.77
21102;BME280;10709;49.006;12.100;2023-06-22T04:13:01;48981.13;;;-146.00;93.11
21102;BME280;10709;49.006;12.100;2023-06-22T04:15:28;49004.63;;;-146.00;94.22
21102;BME280;10709;49.006;12.100;2023-06-22T04:17:56;48979.16;;;-146.00;95.51
21102;BME280;10709;49.006;12.100;2023-06-22T04:20:23;48985.03;;;-146.00;95.72
21102;BME280;10709;49.006;12.100;2023-06-22T04:22:55;48967.41;;;-146.00;97.85
21102;BME280;10709;49.006;12.100;2023-06-22T04:25:22;48945.84;;;-146.00;97.80
21102;BME280;10709;49.006;12.100;2023-06-22T04:27:51;48957.59;;;-146.00;98.12
21102;BME280;10709;49.006;12.100;2023-06-22T04:30:17;48969.38;;;-146.00;98.25
21102;BME280;10709;49.006;12.100;2023-06-22T04:32:45;48957.59;;;-146.00;99.19
21102;BME280;10709;49.006;12.100;2023-06-22T04:35:11;48957.59;;;-146.00;98.62
21102;BME280;10709;49.006;12.100;2023-06-22T04:37:38;48965.44;;;-146.00;98.17
21102;BME280;10709;49.006;12.100;2023-06-22T04:40:06;48941.94;;;-146.00;97.04
21102;BME280;10709;49.006;12.100;2023-06-22T04:42:34;48992.88;;;-146.00;95.97
21102;BME280;10709;49.006;12.100;2023-06-22T04:45:01;48973.28;;;-146.00;95.37
21102;BME280;10709;49.006;12.100;2023-06-22T04:47:28;48977.19;;;-146.00;96.04
21102;BME280;10709;49.006;12.100;2023-06-22T04:49:55;48961.53;;;-146.00;95.75
21102;BME280;10709;49.006;12.100;2023-06-22T04:52:21;48981.13;;;-146.00;95.76
21102;BME280;10709;49.006;12.100;2023-06-22T04:54:48;48957.59;;;-146.00;95.71
21102;BME280;10709;49.006;12.100;2023-06-22T04:57:17;48957.59;;;-146.00;96.05
21102;BME280;10709;49.006;12.100;2023-06-22T04:59:43;48938.03;;;-146.00;98.76
21102;BME280;10709;49.006;12.100;2023-06-22T05:02:11;48938.03;;;-146.00;100.00
21102;BME280;10709;49.006;12.100;2023-06-22T05:04:41;48934.09;;;-146.00;100.00
21102;BME280;10709;49.006;12.100;2023-06-22T05:07:08;48943.91;;;-146.00;100.00
21102;BME280;10709;49.006;12.100;2023-06-22T05:09:35;48965.44;;;-146.00;100.00
21102;BME280;10709;49.006;12.100;2023-06-22T05:12:02;48951.72;;;-146.00;99.81
21102;BME280;10709;49.006;12.100;2023-06-22T05:14:29;48941.94;;;-146.00;100.00
21102;BME280;10709;49.006;12.100;2023-06-22T05:16:56;48920.38;;;-146.00;100.00
21102;BME280;10709;49.006;12.100;2023-06-22T05:19:44;48926.25;;;-146.00;100.00
21102;BME280;10709;49.006;12.100;2023-06-22T05:22:15;48936.06;;;-146.00;100.00
21102;BME280;10709;49.006;12.100;2023-06-22T05:24:42;48953.69;;;-146.00;100.00
21102;BME280;10709;49.006;12.100;2023-06-22T05:27:12;48936.06;;;-146.00;100.00
21102;BME280;10709;49.006;12.100;2023-06-22T05:29:39;48928.22;;;-146.00;100.00
21102;BME280;10709;49.006;12.100;2023-06-22T05:32:06;48953.69;;;-146.00;100.00
21102;BME280;10709;49.006;12.100;2023-06-22T05:34:32;48949.78;;;-146.00;100.00
21102;BME280;10709;49.006;12.100;2023-06-22T05:36:59;48941.94;;;-146.00;100.00
21102;BME280;10709;49.006;12.100;2023-06-22T05:39:26;48928.22;;;-146.00;100.00
21102;BME280;10709;49.006;12.100;2023-06-22T05:41:52;48941.94;;;-146.00;100.00
21102;BME280;10709;49.006;12.100;2023-06-22T05:44:19;48949.78;;;-146.00;99.62
21102;BME280;10709;49.006;12.100;2023-06-22T05:46:47;48967.41;;;-146.00;98.55
21102;BME280;10709;49.006;12.100;2023-06-22T05:49:14;48953.69;;;-146.00;97.81
21102;BME280;10709;49.006;12.100;2023-06-22T05:51:44;48973.28;;;-146.00;97.29
21102;BME280;10709;49.006;12.100;2023-06-22T05:54:11;48969.38;;;-146.00;96.65
21102;BME280;10709;49.006;12.100;2023-06-22T05:56:43;48973.28;;;-146.00;96.76
21102;BME280;10709;49.006;12.100;2023-06-22T05:59:10;48969.38;;;-146.00;95.98
21102;BME280;10709;49.006;12.100;2023-06-22T06:01:36;48969.38;;;-146.00;95.41
21102;BME280;10709;49.006;12.100;2023-06-22T06:04:06;48961.53;;;-146.00;94.31
21102;BME280;10709;49.006;12.100;2023-06-22T06:06:35;48988.94;;;-146.00;94.57
21102;BME280;10709;49.006;12.100;2023-06-22T06:09:04;48953.69;;;-146.00;95.06
21102;BME280;10709;49.006;12.100;2023-06-22T06:11:30;48977.19;;;-146.00;94.67
21102;BME280;10709;49.006;12.100;2023-06-22T06:13:57;48965.44;;;-146.00;94.02
21102;BME280;10709;49.006;12.100;2023-06-22T06:16:24;48963.50;;;-146.00;93.50
21102;BME280;10709;49.006;12.100;2023-06-22T06:18:50;48951.72;;;-146.00;93.00
21102;BME280;10709;49.006;12.100;2023-06-22T06:21:17;48988.94;;;-146.00;92.74
21102;BME280;10709;49.006;12.100;2023-06-22T06:23:44;48979.16;;;-146.00;92.56
21102;BME280;10709;49.006;12.100;2023-06-22T06:26:11;48973.28;;;-146.00;91.17
21102;BME280;10709;49.006;12.100;2023-06-22T06:28:40;48996.78;;;-146.00;89.98
21102;BME280;10709;49.006;12.100;2023-06-22T06:31:07;48990.91;;;-146.00;90.84
21102;BME280;10709;49.006;12.100;2023-06-22T06:33:35;49004.63;;;-146.00;89.15
21102;BME280;10709;49.006;12.100;2023-06-22T06:36:02;48985.03;;;-146.00;89.35
21102;BME280;10709;49.006;12.100;2023-06-22T06:38:32;48987.00;;;-146.00;89.29
21102;BME280;10709;49.006;12.100;2023-06-22T06:40:59;48992.88;;;-146.00;88.51
21102;BME280;10709;49.006;12.100;2023-06-22T06:43:26;49024.22;;;-146.00;86.74
21102;BME280;10709;49.006;12.100;2023-06-22T06:45:56;49004.63;;;-146.00;86.69
21102;BME280;10709;49.006;12.100;2023-06-22T06:48:24;49041.84;;;-146.00;85.16
21102;BME280;10709;49.006;12.100;2023-06-22T06:50:50;49012.47;;;-146.00;86.01
21102;BME280;10709;49.006;12.100;2023-06-22T06:53:17;49000.72;;;-146.00;84.82
21102;BME280;10709;49.006;12.100;2023-06-22T06:55:45;48979.16;;;-146.00;84.33
21102;BME280;10709;49.006;12.100;2023-06-22T06:58:12;48977.19;;;-146.00;83.61
21102;BME280;10709;49.006;12.100;2023-06-22T07:00:42;48988.94;;;-146.00;82.38
21102;BME280;10709;49.006;12.100;2023-06-22T07:03:10;48969.38;;;-146.00;79.99
21102;BME280;10709;49.006;12.100;2023-06-22T07:05:36;48983.06;;;-146.00;79.80
21102;BME280;10709;49.006;12.100;2023-06-22T07:08:03;48934.09;;;-146.00;77.28
21102;BME280;10709;49.006;12.100;2023-06-22T07:10:31;48965.44;;;-146.00;77.05
21102;BME280;10709;49.006;12.100;2023-06-22T07:12:58;48910.59;;;-146.00;76.83
21102;BME280;10709;49.006;12.100;2023-06-22T07:15:25;48981.13;;;-146.00;78.13
21102;BME280;10709;49.006;12.100;2023-06-22T07:17:52;48941.94;;;-146.00;77.25
21102;BME280;10709;49.006;12.100;2023-06-22T07:20:19;48920.38;;;-146.00;76.51
21102;BME280;10709;49.006;12.100;2023-06-22T07:22:46;48914.50;;;-146.00;72.04
21102;BME280;10709;49.006;12.100;2023-06-22T07:25:12;48906.69;;;-146.00;72.28
21102;BME280;10709;49.006;12.100;2023-06-22T07:28:02;48894.91;;;-146.00;72.46
21102;BME280;10709;49.006;12.100;2023-06-22T07:30:31;48898.84;;;-146.00;73.64
21102;BME280;10709;49.006;12.100;2023-06-22T07:33:00;48916.47;;;-146.00;72.95
21102;BME280;10709;49.006;12.100;2023-06-22T07:35:30;48871.41;;;-146.00;71.40
21102;BME280;10709;49.006;12.100;2023-06-22T07:37:57;48871.41;;;-146.00;70.67
21102;BME280;10709;49.006;12.100;2023-06-22T07:40:24;48902.75;;;-146.00;70.33
21102;BME280;10709;49.006;12.100;2023-06-22T07:42:50;48891.00;;;-146.00;67.35
21102;BME280;10709;49.006;12.100;2023-06-22T07:45:18;48898.84;;;-146.00;69.06
21102;BME280;10709;49.006;12.100;2023-06-22T07:47:46;48896.88;;;-146.00;67.04
21102;BME280;10709;49.006;12.100;2023-06-22T07:50:14;48883.16;;;-146.00;67.39
21102;BME280;10709;49.006;12.100;2023-06-22T07:52:40;48918.44;;;-146.00;68.35
21102;BME280;10709;49.006;12.100;2023-06-22T07:55:07;48883.16;;;-146.00;66.52
21102;BME280;10709;49.006;12.100;2023-06-22T07:57:33;48840.06;;;-146.00;65.61
21102;BME280;10709;49.006;12.100;2023-06-22T08:00:02;48894.91;;;-146.00;63.21
21102;BME280;10709;49.006;12.100;2023-06-22T08:02:40;48920.38;;;-146.00;64.09
21102;BME280;10709;49.006;12.100;2023-06-22T08:05:10;48891.00;;;-146.00;62.00
21102;BME280;10709;49.006;12.100;2023-06-22T08:07:40;48869.44;;;-146.00;62.75
21102;BME280;10709;49.006;12.100;2023-06-22T08:10:12;48883.16;;;-146.00;62.58
21102;BME280;10709;49.006;12.100;2023-06-22T08:12:39;48930.19;;;-146.00;60.50
21102;BME280;10709;49.006;12.100;2023-06-22T08:15:06;48883.16;;;-146.00;61.20
21102;BME280;10709;49.006;12.100;2023-06-22T08:17:34;48900.78;;;-146.00;60.47
21102;BME280;10709;49.006;12.100;2023-06-22T08:20:01;48910.59;;;-146.00;58.92
21102;BME280;10709;49.006;12.100;2023-06-22T08:22:29;48887.09;;;-146.00;59.34
21102;BME280;10709;49.006;12.100;2023-06-22T08:24:56;48883.16;;;-146.00;59.30
21102;BME280;10709;49.006;12.100;2023-06-22T08:27:23;48883.16;;;-146.00;56.61
21102;BME280;10709;49.006;12.100;2023-06-22T08:29:52;48879.25;;;-146.00;59.03
21102;BME280;10709;49.006;12.100;2023-06-22T08:32:24;48891.00;;;-146.00;58.28
21102;BME280;10709;49.006;12.100;2023-06-22T08:34:54;48883.16;;;-146.00;58.49
21102;BME280;10709;49.006;12.100;2023-06-22T08:37:21;48926.25;;;-146.00;58.65
21102;BME280;10709;49.006;12.100;2023-06-22T08:39:50;48887.09;;;-146.00;59.59
21102;BME280;10709;49.006;12.100;2023-06-22T08:42:17;48902.75;;;-146.00;58.80
21102;BME280;10709;49.006;12.100;2023-06-22T08:44:44;48879.25;;;-146.00;58.54
21102;BME280;10709;49.006;12.100;2023-06-22T08:47:12;48898.84;;;-146.00;58.48
21102;BME280;10709;49.006;12.100;2023-06-22T08:49:38;48883.16;;;-146.00;58.95
21102;BME280;10709;49.006;12.100;2023-06-22T08:52:05;48918.44;;;-146.00;58.97
21102;BME280;10709;49.006;12.100;2023-06-22T08:54:34;48902.75;;;-146.00;58.55
21102;BME280;10709;49.006;12.100;2023-06-22T08:57:02;48881.22;;;-146.00;58.95
21102;BME280;10709;49.006;12.100;2023-06-22T08:59:30;48898.84;;;-146.00;58.01
21102;BME280;10709;49.006;12.100;2023-06-22T09:01:58;48914.50;;;-146.00;58.48
21102;BME280;10709;49.006;12.100;2023-06-22T09:04:26;48918.44;;;-146.00;57.82
21102;BME280;10709;49.006;12.100;2023-06-22T09:06:53;48896.88;;;-146.00;57.09
21102;BME280;10709;49.006;12.100;2023-06-22T09:09:21;48910.59;;;-146.00;57.75
21102;BME280;10709;49.006;12.100;2023-06-22T09:11:47;48906.69;;;-146.00;57.40
21102;BME280;10709;49.006;12.100;2023-06-22T09:14:14;48945.84;;;-146.00;56.48
21102;BME280;10709;49.006;12.100;2023-06-22T09:16:40;48910.59;;;-146.00;56.95
21102;BME280;10709;49.006;12.100;2023-06-22T09:19:07;48926.25;;;-146.00;56.78
21102;BME280;10709;49.006;12.100;2023-06-22T09:21:33;48908.63;;;-146.00;56.41
21102;BME280;10709;49.006;12.100;2023-06-22T09:24:00;48887.09;;;-146.00;55.60
21102;BME280;10709;49.006;12.100;2023-06-22T09:26:26;48902.75;;;-146.00;55.14
21102;BME280;10709;49.006;12.100;2023-06-22T09:28:53;48898.84;;;-146.00;55.28
21102;BME280;10709;49.006;12.100;2023-06-22T09:31:23;48896.88;;;-146.00;55.69
21102;BME280;10709;49.006;12.100;2023-06-22T09:33:53;48902.75;;;-146.00;55.30
21102;BME280;10709;49.006;12.100;2023-06-22T09:36:21;48926.25;;;-146.00;56.30
21102;BME280;10709;49.006;12.100;2023-06-22T09:38:48;48951.72;;;-146.00;56.97
21102;BME280;10709;49.006;12.100;2023-06-22T09:41:15;48953.69;;;-146.00;56.59
21102;BME280;10709;49.006;12.100;2023-06-22T09:43:42;48934.09;;;-146.00;55.18
21102;BME280;10709;49.006;12.100;2023-06-22T09:46:16;48918.44;;;-146.00;54.81
21102;BME280;10709;49.006;12.100;2023-06-22T09:48:43;48934.09;;;-146.00;53.43
21102;BME280;10709;49.006;12.100;2023-06-22T09:51:09;48930.19;;;-146.00;53.66
21102;BME280;10709;49.006;12.100;2023-06-22T09:53:36;48922.34;;;-146.00;54.60
21102;BME280;10709;49.006;12.100;2023-06-22T09:56:10;48922.34;;;-146.00;55.13
21102;BME280;10709;49.006;12.100;2023-06-22T09:58:44;48914.50;;;-146.00;54.71
21102;BME280;10709;49.006;12.100;2023-06-22T10:01:13;48924.31;;;-146.00;56.01
21102;BME280;10709;49.006;12.100;2023-06-22T10:03:42;48916.47;;;-146.00;55.53
21102;BME280;10709;49.006;12.100;2023-06-22T10:06:09;48953.69;;;-146.00;56.01
21102;BME280;10709;49.006;12.100;2023-06-22T10:08:36;48926.25;;;-146.00;54.96
21102;BME280;10709;49.006;12.100;2023-06-22T10:11:03;48930.19;;;-146.00;54.51
21102;BME280;10709;49.006;12.100;2023-06-22T10:13:30;48969.38;;;-146.00;55.91
21102;BME280;10709;49.006;12.100;2023-06-22T10:15:56;48898.84;;;-146.00;56.35
21102;BME280;10709;49.006;12.100;2023-06-22T10:18:23;48938.03;;;-146.00;56.47
21102;BME280;10709;49.006;12.100;2023-06-22T10:20:51;48930.19;;;-146.00;56.56
21102;BME280;10709;49.006;12.100;2023-06-22T10:23:19;48961.53;;;-146.00;56.14
21102;BME280;10709;49.006;12.100;2023-06-22T10:25:46;48961.53;;;-146.00;56.07
21102;BME280;10709;49.006;12.100;2023-06-22T10:28:14;48920.38;;;-146.00;56.29
21102;BME280;10709;49.006;12.100;2023-06-22T10:30:41;48939.97;;;-146.00;56.39
21102;BME280;10709;49.006;12.100;2023-06-22T10:33:11;48953.69;;;-146.00;56.06
21102;BME280;10709;49.006;12.100;2023-06-22T10:35:38;48936.06;;;-146.00;53.94
21102;BME280;10709;49.006;12.100;2023-06-22T10:38:05;48926.25;;;-146.00;54.99
21102;BME280;10709;49.006;12.100;2023-06-22T10:40:32;48985.03;;;-146.00;53.45
21102;BME280;10709;49.006;12.100;2023-06-22T10:42:59;48943.91;;;-146.00;53.17
21102;BME280;10709;49.006;12.100;2023-06-22T10:45:27;48926.25;;;-146.00;52.62
21102;BME280;10709;49.006;12.100;2023-06-22T10:47:55;48939.97;;;-146.00;53.24
21102;BME280;10709;49.006;12.100;2023-06-22T10:50:21;48918.44;;;-146.00;52.66
21102;BME280;10709;49.006;12.100;2023-06-22T10:52:50;48947.81;;;-146.00;53.34
21102;BME280;10709;49.006;12.100;2023-06-22T10:55:17;48951.72;;;-146.00;52.94
21102;BME280;10709;49.006;12.100;2023-06-22T10:57:45;48949.78;;;-146.00;52.95
21102;BME280;10709;49.006;12.100;2023-06-22T11:00:14;48941.94;;;-146.00;52.42
21102;BME280;10709;49.006;12.100;2023-06-22T11:02:43;48981.13;;;-146.00;52.84
21102;BME280;10709;49.006;12.100;2023-06-22T11:05:11;48932.13;;;-146.00;53.34
21102;BME280;10709;49.006;12.100;2023-06-22T11:07:42;48938.03;;;-146.00;52.53
21102;BME280;10709;49.006;12.100;2023-06-22T11:10:10;48930.19;;;-146.00;52.50
21102;BME280;10709;49.006;12.100;2023-06-22T11:12:37;48965.44;;;-146.00;52.34
21102;BME280;10709;49.006;12.100;2023-06-22T11:15:04;48906.69;;;-146.00;51.87
21102;BME280;10709;49.006;12.100;2023-06-22T11:17:31;48953.69;;;-146.00;51.44
21102;BME280;10709;49.006;12.100;2023-06-22T11:19:58;48955.66;;;-146.00;52.19
21102;BME280;10709;49.006;12.100;2023-06-22T11:22:27;48941.94;;;-146.00;52.32
21102;BME280;10709;49.006;12.100;2023-06-22T11:24:53;48949.78;;;-146.00;52.65
21102;BME280;10709;49.006;12.100;2023-06-22T11:27:20;48924.31;;;-146.00;52.81
21102;BME280;10709;49.006;12.100;2023-06-22T11:29:48;48938.03;;;-146.00;52.98
21102;BME280;10709;49.006;12.100;2023-06-22T11:32:16;48957.59;;;-146.00;51.19
21102;BME280;10709;49.006;12.100;2023-06-22T11:34:43;48949.78;;;-146.00;51.37
21102;BME280;10709;49.006;12.100;2023-06-22T11:37:10;48957.59;;;-146.00;51.56
21102;BME280;10709;49.006;12.100;2023-06-22T11:39:36;48922.34;;;-146.00;51.17
21102;BME280;10709;49.006;12.100;2023-06-22T11:42:09;48941.94;;;-146.00;51.77
21102;BME280;10709;49.006;12.100;2023-06-22T11:44:37;48963.50;;;-146.00;51.95
21102;BME280;10709;49.006;12.100;2023-06-22T11:47:03;48969.38;;;-146.00;52.30
21102;BME280;10709;49.006;12.100;2023-06-22T11:49:31;48924.31;;;-146.00;52.22
21102;BME280;10709;49.006;12.100;2023-06-22T11:51:57;48977.19;;;-146.00;51.91
21102;BME280;10709;49.006;12.100;2023-06-22T11:54:24;48965.44;;;-146.00;52.16
21102;BME280;10709;49.006;12.100;2023-06-22T11:56:50;48930.19;;;-146.00;52.06
21102;BME280;10709;49.006;12.100;2023-06-22T11:59:17;48949.78;;;-146.00;51.00
21102;BME280;10709;49.006;12.100;2023-06-22T12:01:46;48969.38;;;-146.00;50.64
21102;BME280;10709;49.006;12.100;2023-06-22T12:04:14;48967.41;;;-146.00;50.58
21102;BME280;10709;49.006;12.100;2023-06-22T12:06:41;48977.19;;;-146.00;50.60
21102;BME280;10709;49.006;12.100;2023-06-22T12:09:09;48945.84;;;-146.00;51.48
21102;BME280;10709;49.006;12.100;2023-06-22T12:11:36;48936.06;;;-146.00;51.57
21102;BME280;10709;49.006;12.100;2023-06-22T12:14:10;48945.84;;;-146.00;51.30
21102;BME280;10709;49.006;12.100;2023-06-22T12:16:36;48941.94;;;-146.00;50.60
21102;BME280;10709;49.006;12.100;2023-06-22T12:19:05;48934.09;;;-146.00;51.02
21102;BME280;10709;49.006;12.100;2023-06-22T12:21:31;48992.88;;;-146.00;50.39
21102;BME280;10709;49.006;12.100;2023-06-22T12:24:00;48969.38;;;-146.00;51.56
21102;BME280;10709;49.006;12.100;2023-06-22T12:26:27;48969.38;;;-146.00;49.72
21102;BME280;10709;49.006;12.100;2023-06-22T12:28:54;48965.44;;;-146.00;49.49
21102;BME280;10709;49.006;12.100;2023-06-22T12:31:20;48949.78;;;-146.00;49.38
21102;BME280;10709;49.006;12.100;2023-06-22T12:33:47;48949.78;;;-146.00;49.34
21102;BME280;10709;49.006;12.100;2023-06-22T12:36:13;48969.38;;;-146.00;49.74
21102;BME280;10709;49.006;12.100;2023-06-22T12:38:43;48957.59;;;-146.00;48.97
21102;BME280;10709;49.006;12.100;2023-06-22T12:41:09;48934.09;;;-146.00;49.28